Rock Island, Texas
Current Conditions -  °F | °C
As of 12:35 PM on Tuesday 27 Jan 2015 (Local Time) from K66R Reporting Station
Clear Clear  
Wind Chill: 73°   Ceiling: Unl
Heat Index: 73°   Visibility: 10mi
Dew Point: 44°   Wind: 3mph
Humidity: 36%   Direction: 310°NW
Pressure: 30.15"   Gusts: NA
Location:  29.53°N, 96.57°W
Report Text: K66R 271835Z AUTO 31003KT 10SM CLR 23/07 A3015 RMK AO2 T02250066
Loading
Personal Weather Stations






























Interactive Weather Map New forecast layout! Learn more

10-Day Weather Forecast

Advertisements
Track Severe Weather on mobile